Preview of NWS' New Version of Forecast
This preview is not operational and should not be used for support decisions.

Terminal Aerodrome Forecast (TAF)

Issued by National Weather Service (NWS)

                            
000
FTUS42 KCAE 130232 AAA
TAFOGB
TAF AMD
KOGB 130232Z 1302/1324 VRB05KT P6SM SCT050
     FM130800 00000KT 4SM BR SKC
     FM131300 09005KT P6SM SCT040=